sensor_id;sensor_type;location;lat;lon;timestamp;temperature;humidity
75372;HTU21D;63956;52.006;5.878;2023-04-15T00:01:25;9.07;60.28
75372;HTU21D;63956;52.006;5.878;2023-04-15T00:03:55;9.03;60.47
75372;HTU21D;63956;52.006;5.878;2023-04-15T00:06:24;9.03;60.54
75372;HTU21D;63956;52.006;5.878;2023-04-15T00:08:53;9.10;60.33
75372;HTU21D;63956;52.006;5.878;2023-04-15T00:11:22;9.08;60.47
75372;HTU21D;63956;52.006;5.878;2023-04-15T00:13:54;9.07;60.65
75372;HTU21D;63956;52.006;5.878;2023-04-15T00:16:23;9.08;60.76
75372;HTU21D;63956;52.006;5.878;2023-04-15T00:18:53;9.09;60.76
75372;HTU21D;63956;52.006;5.878;2023-04-15T00:21:22;9.09;60.83
75372;HTU21D;63956;52.006;5.878;2023-04-15T00:23:54;9.09;60.92
75372;HTU21D;63956;52.006;5.878;2023-04-15T00:26:23;9.09;60.96
75372;HTU21D;63956;52.006;5.878;2023-04-15T00:28:55;9.10;60.99
75372;HTU21D;63956;52.006;5.878;2023-04-15T00:31:24;9.12;61.02
75372;HTU21D;63956;52.006;5.878;2023-04-15T00:33:54;9.12;61.06
75372;HTU21D;63956;52.006;5.878;2023-04-15T00:36:23;9.14;61.12
75372;HTU21D;63956;52.006;5.878;2023-04-15T00:38:52;9.14;61.19
75372;HTU21D;63956;52.006;5.878;2023-04-15T00:41:21;9.15;61.00
75372;HTU21D;63956;52.006;5.878;2023-04-15T00:43:50;9.11;61.12
75372;HTU21D;63956;52.006;5.878;2023-04-15T00:46:22;9.12;60.98
75372;HTU21D;63956;52.006;5.878;2023-04-15T00:48:51;9.07;61.18
75372;HTU21D;63956;52.006;5.878;2023-04-15T00:51:21;9.01;61.26
75372;HTU21D;63956;52.006;5.878;2023-04-15T00:53:50;8.97;61.34
75372;HTU21D;63956;52.006;5.878;2023-04-15T00:56:20;8.91;61.53
75372;HTU21D;63956;52.006;5.878;2023-04-15T00:58:50;8.87;61.57
75372;HTU21D;63956;52.006;5.878;2023-04-15T01:01:23;8.80;61.63
75372;HTU21D;63956;52.006;5.878;2023-04-15T01:03:55;8.74;61.81
75372;HTU21D;63956;52.006;5.878;2023-04-15T01:06:26;8.66;61.89
75372;HTU21D;63956;52.006;5.878;2023-04-15T01:08:56;8.62;61.84
75372;HTU21D;63956;52.006;5.878;2023-04-15T01:11:25;8.51;61.94
75372;HTU21D;63956;52.006;5.878;2023-04-15T01:13:57;8.46;62.02
75372;HTU21D;63956;52.006;5.878;2023-04-15T01:16:29;8.41;62.07
75372;HTU21D;63956;52.006;5.878;2023-04-15T01:18:59;8.34;62.18
75372;HTU21D;63956;52.006;5.878;2023-04-15T01:21:28;8.29;62.21
75372;HTU21D;63956;52.006;5.878;2023-04-15T01:23:58;8.21;62.37
75372;HTU21D;63956;52.006;5.878;2023-04-15T01:26:32;8.16;62.43
75372;HTU21D;63956;52.006;5.878;2023-04-15T01:29:02;8.11;62.50
75372;HTU21D;63956;52.006;5.878;2023-04-15T01:31:31;8.05;62.50
75372;HTU21D;63956;52.006;5.878;2023-04-15T01:34:01;7.99;62.59
75372;HTU21D;63956;52.006;5.878;2023-04-15T01:36:30;7.97;62.48
75372;HTU21D;63956;52.006;5.878;2023-04-15T01:38:59;7.89;62.55
75372;HTU21D;63956;52.006;5.878;2023-04-15T01:41:28;7.83;62.65
75372;HTU21D;63956;52.006;5.878;2023-04-15T01:44:00;7.78;62.57
75372;HTU21D;63956;52.006;5.878;2023-04-15T01:46:29;7.72;62.66
75372;HTU21D;63956;52.006;5.878;2023-04-15T01:48:59;7.64;62.79
75372;HTU21D;63956;52.006;5.878;2023-04-15T01:51:28;7.59;62.89
75372;HTU21D;63956;52.006;5.878;2023-04-15T01:53:57;7.55;62.81
75372;HTU21D;63956;52.006;5.878;2023-04-15T01:56:26;7.48;62.94
75372;HTU21D;63956;52.006;5.878;2023-04-15T01:58:56;7.43;63.03
75372;HTU21D;63956;52.006;5.878;2023-04-15T02:01:32;7.40;63.07
75372;HTU21D;63956;52.006;5.878;2023-04-15T02:04:01;7.38;63.13
75372;HTU21D;63956;52.006;5.878;2023-04-15T02:06:31;7.33;63.20
75372;HTU21D;63956;52.006;5.878;2023-04-15T02:09:01;7.29;63.30
75372;HTU21D;63956;52.006;5.878;2023-04-15T02:11:30;7.26;63.37
75372;HTU21D;63956;52.006;5.878;2023-04-15T02:14:00;7.24;63.41
75372;HTU21D;63956;52.006;5.878;2023-04-15T02:16:32;7.20;63.49
75372;HTU21D;63956;52.006;5.878;2023-04-15T02:19:01;7.14;63.62
75372;HTU21D;63956;52.006;5.878;2023-04-15T02:21:31;7.10;63.69
75372;HTU21D;63956;52.006;5.878;2023-04-15T02:24:00;7.07;63.76
75372;HTU21D;63956;52.006;5.878;2023-04-15T02:26:30;7.04;63.76
75372;HTU21D;63956;52.006;5.878;2023-04-15T02:28:59;7.00;63.81
75372;HTU21D;63956;52.006;5.878;2023-04-15T02:31:28;6.97;63.67
75372;HTU21D;63956;52.006;5.878;2023-04-15T02:34:04;6.90;63.77
75372;HTU21D;63956;52.006;5.878;2023-04-15T02:36:33;6.86;63.86
75372;HTU21D;63956;52.006;5.878;2023-04-15T02:39:04;6.84;63.89
75372;HTU21D;63956;52.006;5.878;2023-04-15T02:41:34;6.78;63.95
75372;HTU21D;63956;52.006;5.878;2023-04-15T02:44:04;6.79;64.07
75372;HTU21D;63956;52.006;5.878;2023-04-15T02:46:34;6.75;64.06
75372;HTU21D;63956;52.006;5.878;2023-04-15T02:49:07;6.74;64.16
75372;HTU21D;63956;52.006;5.878;2023-04-15T02:51:36;6.74;64.15
75372;HTU21D;63956;52.006;5.878;2023-04-15T02:54:05;6.74;63.94
75372;HTU21D;63956;52.006;5.878;2023-04-15T02:56:34;6.73;64.05
75372;HTU21D;63956;52.006;5.878;2023-04-15T02:59:03;6.72;64.21
75372;HTU21D;63956;52.006;5.878;2023-04-15T03:01:32;6.74;64.00
75372;HTU21D;63956;52.006;5.878;2023-04-15T03:04:01;6.72;64.12
75372;HTU21D;63956;52.006;5.878;2023-04-15T03:06:35;6.73;64.33
75372;HTU21D;63956;52.006;5.878;2023-04-15T03:09:07;6.74;64.34
75372;HTU21D;63956;52.006;5.878;2023-04-15T03:11:37;6.79;64.37
75372;HTU21D;63956;52.006;5.878;2023-04-15T03:14:09;6.82;64.32
75372;HTU21D;63956;52.006;5.878;2023-04-15T03:16:42;6.85;64.37
75372;HTU21D;63956;52.006;5.878;2023-04-15T03:19:13;6.88;64.49
75372;HTU21D;63956;52.006;5.878;2023-04-15T03:21:45;6.90;64.54
75372;HTU21D;63956;52.006;5.878;2023-04-15T03:24:15;6.93;64.53
75372;HTU21D;63956;52.006;5.878;2023-04-15T03:26:44;6.96;64.57
75372;HTU21D;63956;52.006;5.878;2023-04-15T03:29:16;6.98;64.60
75372;HTU21D;63956;52.006;5.878;2023-04-15T03:31:45;6.99;64.75
75372;HTU21D;63956;52.006;5.878;2023-04-15T03:34:15;7.01;64.71
75372;HTU21D;63956;52.006;5.878;2023-04-15T03:36:47;7.02;64.76
75372;HTU21D;63956;52.006;5.878;2023-04-15T03:39:17;7.07;64.79
75372;HTU21D;63956;52.006;5.878;2023-04-15T03:41:46;7.08;64.75
75372;HTU21D;63956;52.006;5.878;2023-04-15T03:44:15;7.09;64.84
75372;HTU21D;63956;52.006;5.878;2023-04-15T03:46:44;7.12;64.89
75372;HTU21D;63956;52.006;5.878;2023-04-15T03:49:14;7.14;64.91
75372;HTU21D;63956;52.006;5.878;2023-04-15T03:51:47;7.14;64.89
75372;HTU21D;63956;52.006;5.878;2023-04-15T03:54:16;7.16;64.94
75372;HTU21D;63956;52.006;5.878;2023-04-15T03:56:45;7.16;64.89
75372;HTU21D;63956;52.006;5.878;2023-04-15T03:59:14;7.16;64.98
75372;HTU21D;63956;52.006;5.878;2023-04-15T04:01:43;7.17;65.00
75372;HTU21D;63956;52.006;5.878;2023-04-15T04:04:12;7.16;65.04
75372;HTU21D;63956;52.006;5.878;2023-04-15T04:06:41;7.18;65.08
75372;HTU21D;63956;52.006;5.878;2023-04-15T04:09:13;7.20;64.88
75372;HTU21D;63956;52.006;5.878;2023-04-15T04:11:42;7.18;64.96
75372;HTU21D;63956;52.006;5.878;2023-04-15T04:14:11;7.16;65.07
75372;HTU21D;63956;52.006;5.878;2023-04-15T04:16:40;7.18;64.90
75372;HTU21D;63956;52.006;5.878;2023-04-15T04:19:09;7.15;65.05
75372;HTU21D;63956;52.006;5.878;2023-04-15T04:21:39;7.13;65.15
75372;HTU21D;63956;52.006;5.878;2023-04-15T04:24:08;7.16;65.00
75372;HTU21D;63956;52.006;5.878;2023-04-15T04:26:40;7.10;65.17
75372;HTU21D;63956;52.006;5.878;2023-04-15T04:29:09;7.10;65.26
75372;HTU21D;63956;52.006;5.878;2023-04-15T04:31:38;7.10;65.36
75372;HTU21D;63956;52.006;5.878;2023-04-15T04:34:07;7.14;65.14
75372;HTU21D;63956;52.006;5.878;2023-04-15T04:36:36;7.10;65.24
75372;HTU21D;63956;52.006;5.878;2023-04-15T04:39:05;7.12;65.36
75372;HTU21D;63956;52.006;5.878;2023-04-15T04:41:34;7.11;65.43
75372;HTU21D;63956;52.006;5.878;2023-04-15T04:44:06;7.09;65.48
75372;HTU21D;63956;52.006;5.878;2023-04-15T04:46:35;7.11;65.52
75372;HTU21D;63956;52.006;5.878;2023-04-15T04:49:04;7.11;65.56
75372;HTU21D;63956;52.006;5.878;2023-04-15T04:51:33;7.12;65.65
75372;HTU21D;63956;52.006;5.878;2023-04-15T04:54:03;7.11;65.69
75372;HTU21D;63956;52.006;5.878;2023-04-15T04:56:32;7.12;65.72
75372;HTU21D;63956;52.006;5.878;2023-04-15T04:59:06;7.12;65.80
75372;HTU21D;63956;52.006;5.878;2023-04-15T05:01:36;7.13;65.85
75372;HTU21D;63956;52.006;5.878;2023-04-15T05:04:04;7.17;65.59
75372;HTU21D;63956;52.006;5.878;2023-04-15T05:06:33;7.14;65.68
75372;HTU21D;63956;52.006;5.878;2023-04-15T05:09:03;7.13;65.81
75372;HTU21D;63956;52.006;5.878;2023-04-15T05:11:33;7.15;65.85
75372;HTU21D;63956;52.006;5.878;2023-04-15T05:14:02;7.17;65.65
75372;HTU21D;63956;52.006;5.878;2023-04-15T05:16:33;7.14;65.78
75372;HTU21D;63956;52.006;5.878;2023-04-15T05:19:02;7.14;65.92
75372;HTU21D;63956;52.006;5.878;2023-04-15T05:21:32;7.13;66.00
75372;HTU21D;63956;52.006;5.878;2023-04-15T05:24:02;7.15;66.11
75372;HTU21D;63956;52.006;5.878;2023-04-15T05:26:32;7.15;66.15
75372;HTU21D;63956;52.006;5.878;2023-04-15T05:29:01;7.18;66.11
75372;HTU21D;63956;52.006;5.878;2023-04-15T05:31:33;7.20;66.19
75372;HTU21D;63956;52.006;5.878;2023-04-15T05:34:02;7.23;66.24
75372;HTU21D;63956;52.006;5.878;2023-04-15T05:36:32;7.25;66.21
75372;HTU21D;63956;52.006;5.878;2023-04-15T05:39:01;7.28;66.25
75372;HTU21D;63956;52.006;5.878;2023-04-15T05:41:30;7.30;66.24
75372;HTU21D;63956;52.006;5.878;2023-04-15T05:43:59;7.33;66.00
75372;HTU21D;63956;52.006;5.878;2023-04-15T05:46:28;7.32;66.17
75372;HTU21D;63956;52.006;5.878;2023-04-15T05:49:00;7.32;66.36
75372;HTU21D;63956;52.006;5.878;2023-04-15T05:51:29;7.35;66.31
75372;HTU21D;63956;52.006;5.878;2023-04-15T05:53:58;7.40;66.07
75372;HTU21D;63956;52.006;5.878;2023-04-15T05:56:27;7.39;66.27
75372;HTU21D;63956;52.006;5.878;2023-04-15T05:58:56;7.43;66.40
75372;HTU21D;63956;52.006;5.878;2023-04-15T06:01:26;7.46;66.58
75372;HTU21D;63956;52.006;5.878;2023-04-15T06:03:55;7.50;66.57
75372;HTU21D;63956;52.006;5.878;2023-04-15T06:06:27;7.55;66.64
75372;HTU21D;63956;52.006;5.878;2023-04-15T06:08:57;7.62;66.72
75372;HTU21D;63956;52.006;5.878;2023-04-15T06:11:26;7.70;66.79
75372;HTU21D;63956;52.006;5.878;2023-04-15T06:13:55;7.78;66.40
75372;HTU21D;63956;52.006;5.878;2023-04-15T06:16:24;7.82;66.65
75372;HTU21D;63956;52.006;5.878;2023-04-15T06:18:53;7.89;66.40
75372;HTU21D;63956;52.006;5.878;2023-04-15T06:21:22;7.91;66.72
75372;HTU21D;63956;52.006;5.878;2023-04-15T06:23:54;7.98;66.93
75372;HTU21D;63956;52.006;5.878;2023-04-15T06:26:24;8.02;67.10
75372;HTU21D;63956;52.006;5.878;2023-04-15T06:28:53;8.11;67.15
75372;HTU21D;63956;52.006;5.878;2023-04-15T06:31:22;8.21;66.72
75372;HTU21D;63956;52.006;5.878;2023-04-15T06:33:51;8.27;66.97
75372;HTU21D;63956;52.006;5.878;2023-04-15T06:36:20;8.32;67.12
75372;HTU21D;63956;52.006;5.878;2023-04-15T06:38:49;8.39;67.19
75372;HTU21D;63956;52.006;5.878;2023-04-15T06:41:21;8.47;67.21
75372;HTU21D;63956;52.006;5.878;2023-04-15T06:43:50;8.53;67.26
75372;HTU21D;63956;52.006;5.878;2023-04-15T06:46:19;8.64;66.87
75372;HTU21D;63956;52.006;5.878;2023-04-15T06:48:48;8.66;67.07
75372;HTU21D;63956;52.006;5.878;2023-04-15T06:51:17;8.76;66.84
75372;HTU21D;63956;52.006;5.878;2023-04-15T06:53:46;8.78;67.03
75372;HTU21D;63956;52.006;5.878;2023-04-15T06:56:15;8.81;67.14
75372;HTU21D;63956;52.006;5.878;2023-04-15T06:58:47;8.88;67.21
75372;HTU21D;63956;52.006;5.878;2023-04-15T07:01:16;8.93;67.21
75372;HTU21D;63956;52.006;5.878;2023-04-15T07:03:45;9.04;66.91
75372;HTU21D;63956;52.006;5.878;2023-04-15T07:06:14;9.05;67.04
75372;HTU21D;63956;52.006;5.878;2023-04-15T07:08:43;9.11;66.84
75372;HTU21D;63956;52.006;5.878;2023-04-15T07:11:12;9.11;67.01
75372;HTU21D;63956;52.006;5.878;2023-04-15T07:13:42;9.14;67.10
75372;HTU21D;63956;52.006;5.878;2023-04-15T07:16:14;9.19;67.14
75372;HTU21D;63956;52.006;5.878;2023-04-15T07:18:43;9.26;67.15
75372;HTU21D;63956;52.006;5.878;2023-04-15T07:21:12;9.29;67.13
75372;HTU21D;63956;52.006;5.878;2023-04-15T07:23:42;9.33;67.13
75372;HTU21D;63956;52.006;5.878;2023-04-15T07:26:11;9.38;67.11
75372;HTU21D;63956;52.006;5.878;2023-04-15T07:28:40;9.46;66.87
75372;HTU21D;63956;52.006;5.878;2023-04-15T07:31:13;9.46;66.91
75372;HTU21D;63956;52.006;5.878;2023-04-15T07:33:43;9.46;67.00
75372;HTU21D;63956;52.006;5.878;2023-04-15T07:36:11;9.53;66.81
75372;HTU21D;63956;52.006;5.878;2023-04-15T07:38:40;9.54;66.88
75372;HTU21D;63956;52.006;5.878;2023-04-15T07:41:10;9.55;67.00
75372;HTU21D;63956;52.006;5.878;2023-04-15T07:43:39;9.61;67.00
75372;HTU21D;63956;52.006;5.878;2023-04-15T07:46:08;9.66;67.02
75372;HTU21D;63956;52.006;5.878;2023-04-15T07:48:40;9.70;66.80
75372;HTU21D;63956;52.006;5.878;2023-04-15T07:51:09;9.70;66.81
75372;HTU21D;63956;52.006;5.878;2023-04-15T07:53:38;9.74;66.91
75372;HTU21D;63956;52.006;5.878;2023-04-15T07:56:08;9.76;66.91
75372;HTU21D;63956;52.006;5.878;2023-04-15T07:58:37;9.82;66.94
75372;HTU21D;63956;52.006;5.878;2023-04-15T08:01:06;9.89;66.86
75372;HTU21D;63956;52.006;5.878;2023-04-15T08:03:35;9.95;66.75
75372;HTU21D;63956;52.006;5.878;2023-04-15T08:06:07;10.03;66.58
75372;HTU21D;63956;52.006;5.878;2023-04-15T08:08:36;10.04;66.62
75372;HTU21D;63956;52.006;5.878;2023-04-15T08:11:05;10.15;66.43
75372;HTU21D;63956;52.006;5.878;2023-04-15T08:13:34;10.21;66.46
75372;HTU21D;63956;52.006;5.878;2023-04-15T08:16:13;10.33;66.27
75372;HTU21D;63956;52.006;5.878;2023-04-15T08:18:43;10.38;66.17
75372;HTU21D;63956;52.006;5.878;2023-04-15T08:21:15;10.45;66.16
75372;HTU21D;63956;52.006;5.878;2023-04-15T08:23:46;10.53;66.06
75372;HTU21D;63956;52.006;5.878;2023-04-15T08:26:16;10.60;65.92
75372;HTU21D;63956;52.006;5.878;2023-04-15T08:28:45;10.73;65.80
75372;HTU21D;63956;52.006;5.878;2023-04-15T08:31:15;10.78;65.82
75372;HTU21D;63956;52.006;5.878;2023-04-15T08:33:44;10.87;65.66
75372;HTU21D;63956;52.006;5.878;2023-04-15T08:36:16;10.96;65.62
75372;HTU21D;63956;52.006;5.878;2023-04-15T08:38:45;11.02;65.39
75372;HTU21D;63956;52.006;5.878;2023-04-15T08:41:17;11.15;65.31
75372;HTU21D;63956;52.006;5.878;2023-04-15T08:43:51;11.17;64.91
75372;HTU21D;63956;52.006;5.878;2023-04-15T08:46:22;11.19;64.82
75372;HTU21D;63956;52.006;5.878;2023-04-15T08:48:54;11.23;64.76
75372;HTU21D;63956;52.006;5.878;2023-04-15T08:51:27;11.27;64.59
75372;HTU21D;63956;52.006;5.878;2023-04-15T08:53:57;11.30;64.56
75372;HTU21D;63956;52.006;5.878;2023-04-15T08:56:27;11.33;64.36
75372;HTU21D;63956;52.006;5.878;2023-04-15T08:58:58;11.39;64.12
75372;HTU21D;63956;52.006;5.878;2023-04-15T09:01:28;11.42;64.32
75372;HTU21D;63956;52.006;5.878;2023-04-15T09:03:58;11.46;63.92
75372;HTU21D;63956;52.006;5.878;2023-04-15T09:06:30;11.49;63.92
75372;HTU21D;63956;52.006;5.878;2023-04-15T09:08:59;11.56;63.82
75372;HTU21D;63956;52.006;5.878;2023-04-15T09:11:29;11.60;63.72
75372;HTU21D;63956;52.006;5.878;2023-04-15T09:13:58;11.64;63.63
75372;HTU21D;63956;52.006;5.878;2023-04-15T09:16:27;11.68;63.64
75372;HTU21D;63956;52.006;5.878;2023-04-15T09:18:57;11.75;63.69
75372;HTU21D;63956;52.006;5.878;2023-04-15T09:21:26;11.86;63.58
75372;HTU21D;63956;52.006;5.878;2023-04-15T09:23:59;11.88;63.14
75372;HTU21D;63956;52.006;5.878;2023-04-15T09:26:32;11.90;63.24
75372;HTU21D;63956;52.006;5.878;2023-04-15T09:29:03;11.96;63.29
75372;HTU21D;63956;52.006;5.878;2023-04-15T09:31:34;12.05;63.09
75372;HTU21D;63956;52.006;5.878;2023-04-15T09:34:04;12.16;62.99
75372;HTU21D;63956;52.006;5.878;2023-04-15T09:36:51;12.29;62.97
75372;HTU21D;63956;52.006;5.878;2023-04-15T09:39:23;12.42;62.52
75372;HTU21D;63956;52.006;5.878;2023-04-15T09:42:05;12.56;62.50
75372;HTU21D;63956;52.006;5.878;2023-04-15T09:44:35;12.64;61.79
75372;HTU21D;63956;52.006;5.878;2023-04-15T09:47:05;12.73;62.18
75372;HTU21D;63956;52.006;5.878;2023-04-15T09:49:34;12.82;61.86
75372;HTU21D;63956;52.006;5.878;2023-04-15T09:52:03;12.92;61.82
75372;HTU21D;63956;52.006;5.878;2023-04-15T09:54:37;13.01;61.86
75372;HTU21D;63956;52.006;5.878;2023-04-15T09:57:07;13.14;61.70
75372;HTU21D;63956;52.006;5.878;2023-04-15T09:59:37;13.21;61.63
75372;HTU21D;63956;52.006;5.878;2023-04-15T10:02:06;13.29;61.44
75372;HTU21D;63956;52.006;5.878;2023-04-15T10:04:39;13.33;61.18
75372;HTU21D;63956;52.006;5.878;2023-04-15T10:07:10;13.38;61.16
75372;HTU21D;63956;52.006;5.878;2023-04-15T10:09:43;13.45;61.13
75372;HTU21D;63956;52.006;5.878;2023-04-15T10:12:15;13.55;60.96
75372;HTU21D;63956;52.006;5.878;2023-04-15T10:14:47;13.68;60.34
75372;HTU21D;63956;52.006;5.878;2023-04-15T10:17:17;13.78;59.90
75372;HTU21D;63956;52.006;5.878;2023-04-15T10:19:52;13.88;59.76
75372;HTU21D;63956;52.006;5.878;2023-04-15T10:22:22;14.00;59.77
75372;HTU21D;63956;52.006;5.878;2023-04-15T10:24:55;14.14;59.17
75372;HTU21D;63956;52.006;5.878;2023-04-15T10:27:26;14.24;58.99
75372;HTU21D;63956;52.006;5.878;2023-04-15T10:29:55;14.34;58.94
75372;HTU21D;63956;52.006;5.878;2023-04-15T10:32:25;14.45;58.40
75372;HTU21D;63956;52.006;5.878;2023-04-15T10:34:55;14.54;58.50
75372;HTU21D;63956;52.006;5.878;2023-04-15T10:37:33;14.59;58.62
75372;HTU21D;63956;52.006;5.878;2023-04-15T10:40:30;14.63;58.38
75372;HTU21D;63956;52.006;5.878;2023-04-15T10:43:01;14.58;58.29
75372;HTU21D;63956;52.006;5.878;2023-04-15T10:45:32;14.54;58.34
75372;HTU21D;63956;52.006;5.878;2023-04-15T10:48:05;14.49;58.45
75372;HTU21D;63956;52.006;5.878;2023-04-15T10:50:36;14.50;57.99
75372;HTU21D;63956;52.006;5.878;2023-04-15T10:53:09;14.52;58.09
75372;HTU21D;63956;52.006;5.878;2023-04-15T10:55:41;14.58;58.21
75372;HTU21D;63956;52.006;5.878;2023-04-15T10:58:10;14.68;57.90
75372;HTU21D;63956;52.006;5.878;2023-04-15T11:00:40;14.75;57.73
75372;HTU21D;63956;52.006;5.878;2023-04-15T11:03:35;14.80;57.54
75372;HTU21D;63956;52.006;5.878;2023-04-15T11:06:05;14.72;57.15
75372;HTU21D;63956;52.006;5.878;2023-04-15T11:08:54;14.67;57.47
75372;HTU21D;63956;52.006;5.878;2023-04-15T11:14:26;14.63;56.86
75372;HTU21D;63956;52.006;5.878;2023-04-15T11:16:55;14.64;56.71
75372;HTU21D;63956;52.006;5.878;2023-04-15T11:19:24;14.65;56.34
75372;HTU21D;63956;52.006;5.878;2023-04-15T11:21:53;14.70;56.24
75372;HTU21D;63956;52.006;5.878;2023-04-15T11:24:23;14.78;56.16
75372;HTU21D;63956;52.006;5.878;2023-04-15T11:26:56;14.86;56.11
75372;HTU21D;63956;52.006;5.878;2023-04-15T11:29:30;14.88;55.97
75372;HTU21D;63956;52.006;5.878;2023-04-15T11:32:08;14.86;55.97
75372;HTU21D;63956;52.006;5.878;2023-04-15T11:34:37;14.82;55.94
75372;HTU21D;63956;52.006;5.878;2023-04-15T11:37:06;14.80;55.77
75372;HTU21D;63956;52.006;5.878;2023-04-15T11:39:36;14.77;55.75
75372;HTU21D;63956;52.006;5.878;2023-04-15T11:42:16;14.81;55.87
75372;HTU21D;63956;52.006;5.878;2023-04-15T11:44:47;14.87;55.38
75372;HTU21D;63956;52.006;5.878;2023-04-15T11:47:22;14.95;55.58
75372;HTU21D;63956;52.006;5.878;2023-04-15T11:49:52;14.97;55.10
75372;HTU21D;63956;52.006;5.878;2023-04-15T11:52:21;14.97;54.35
75372;HTU21D;63956;52.006;5.878;2023-04-15T11:54:51;14.95;54.52
75372;HTU21D;63956;52.006;5.878;2023-04-15T11:57:20;14.96;54.32
75372;HTU21D;63956;52.006;5.878;2023-04-15T11:59:53;14.96;54.13
75372;HTU21D;63956;52.006;5.878;2023-04-15T12:02:30;14.97;54.15
75372;HTU21D;63956;52.006;5.878;2023-04-15T12:05:03;14.99;53.81
75372;HTU21D;63956;52.006;5.878;2023-04-15T12:07:33;15.00;53.87
75372;HTU21D;63956;52.006;5.878;2023-04-15T12:10:02;15.01;53.91
75372;HTU21D;63956;52.006;5.878;2023-04-15T12:12:32;15.01;53.57
75372;HTU21D;63956;52.006;5.878;2023-04-15T12:15:04;15.04;53.75
75372;HTU21D;63956;52.006;5.878;2023-04-15T12:17:39;15.15;53.56
75372;HTU21D;63956;52.006;5.878;2023-04-15T12:20:08;15.19;53.60
75372;HTU21D;63956;52.006;5.878;2023-04-15T12:22:38;15.21;53.74
75372;HTU21D;63956;52.006;5.878;2023-04-15T12:25:07;15.15;53.46
75372;HTU21D;63956;52.006;5.878;2023-04-15T12:27:36;15.19;53.68
75372;HTU21D;63956;52.006;5.878;2023-04-15T12:30:09;15.24;53.28
75372;HTU21D;63956;52.006;5.878;2023-04-15T12:32:38;15.27;52.82
75372;HTU21D;63956;52.006;5.878;2023-04-15T12:35:07;15.27;52.82
75372;HTU21D;63956;52.006;5.878;2023-04-15T12:37:36;15.25;53.17
75372;HTU21D;63956;52.006;5.878;2023-04-15T12:40:07;15.28;53.19
75372;HTU21D;63956;52.006;5.878;2023-04-15T12:42:37;15.27;53.19
75372;HTU21D;63956;52.006;5.878;2023-04-15T12:45:09;15.22;53.43
75372;HTU21D;63956;52.006;5.878;2023-04-15T12:47:38;15.16;53.56
75372;HTU21D;63956;52.006;5.878;2023-04-15T12:50:07;15.13;53.72
75372;HTU21D;63956;52.006;5.878;2023-04-15T12:52:36;15.14;53.94
75372;HTU21D;63956;52.006;5.878;2023-04-15T12:55:06;15.21;53.56
75372;HTU21D;63956;52.006;5.878;2023-04-15T12:57:35;15.27;53.69
75372;HTU21D;63956;52.006;5.878;2023-04-15T13:00:09;15.29;53.47
75372;HTU21D;63956;52.006;5.878;2023-04-15T13:02:39;15.28;53.39
75372;HTU21D;63956;52.006;5.878;2023-04-15T13:05:08;15.26;53.43
75372;HTU21D;63956;52.006;5.878;2023-04-15T13:07:39;15.25;53.37
75372;HTU21D;63956;52.006;5.878;2023-04-15T13:10:09;15.25;53.13
75372;HTU21D;63956;52.006;5.878;2023-04-15T13:12:38;15.21;53.17
75372;HTU21D;63956;52.006;5.878;2023-04-15T13:15:11;15.17;53.58
75372;HTU21D;63956;52.006;5.878;2023-04-15T13:17:40;15.22;53.46
75372;HTU21D;63956;52.006;5.878;2023-04-15T13:20:10;15.26;53.43
75372;HTU21D;63956;52.006;5.878;2023-04-15T13:22:39;15.25;53.39
75372;HTU21D;63956;52.006;5.878;2023-04-15T13:25:09;15.25;53.35
75372;HTU21D;63956;52.006;5.878;2023-04-15T13:27:38;15.24;53.29
75372;HTU21D;63956;52.006;5.878;2023-04-15T13:30:10;15.22;53.36
75372;HTU21D;63956;52.006;5.878;2023-04-15T13:32:40;15.12;53.33
75372;HTU21D;63956;52.006;5.878;2023-04-15T13:35:09;15.08;53.59
75372;HTU21D;63956;52.006;5.878;2023-04-15T13:37:38;15.09;53.49
75372;HTU21D;63956;52.006;5.878;2023-04-15T13:40:08;15.10;53.44
75372;HTU21D;63956;52.006;5.878;2023-04-15T13:42:37;15.13;53.20
75372;HTU21D;63956;52.006;5.878;2023-04-15T13:45:10;15.16;53.35
75372;HTU21D;63956;52.006;5.878;2023-04-15T13:47:40;15.16;53.36
75372;HTU21D;63956;52.006;5.878;2023-04-15T13:50:10;15.15;53.27
75372;HTU21D;63956;52.006;5.878;2023-04-15T13:52:39;15.13;53.34
75372;HTU21D;63956;52.006;5.878;2023-04-15T13:55:09;15.06;53.35
75372;HTU21D;63956;52.006;5.878;2023-04-15T13:57:38;14.99;53.40
75372;HTU21D;63956;52.006;5.878;2023-04-15T14:00:11;14.93;53.29
75372;HTU21D;63956;52.006;5.878;2023-04-15T14:02:41;14.88;53.59
75372;HTU21D;63956;52.006;5.878;2023-04-15T14:05:10;14.84;53.33
75372;HTU21D;63956;52.006;5.878;2023-04-15T14:07:39;14.72;53.62
75372;HTU21D;63956;52.006;5.878;2023-04-15T14:10:09;14.59;53.67
75372;HTU21D;63956;52.006;5.878;2023-04-15T14:12:38;14.51;53.87
75372;HTU21D;63956;52.006;5.878;2023-04-15T14:15:10;14.40;53.95
75372;HTU21D;63956;52.006;5.878;2023-04-15T14:17:39;14.30;53.88
75372;HTU21D;63956;52.006;5.878;2023-04-15T14:20:09;14.22;53.98
75372;HTU21D;63956;52.006;5.878;2023-04-15T14:22:39;14.11;54.17
75372;HTU21D;63956;52.006;5.878;2023-04-15T14:25:08;14.04;54.36
75372;HTU21D;63956;52.006;5.878;2023-04-15T14:27:37;13.98;54.46
75372;HTU21D;63956;52.006;5.878;2023-04-15T14:30:11;13.92;54.62
75372;HTU21D;63956;52.006;5.878;2023-04-15T14:32:40;13.84;54.59
75372;HTU21D;63956;52.006;5.878;2023-04-15T14:35:09;13.76;54.76
75372;HTU21D;63956;52.006;5.878;2023-04-15T14:37:38;13.65;55.02
75372;HTU21D;63956;52.006;5.878;2023-04-15T14:40:08;13.54;55.00
75372;HTU21D;63956;52.006;5.878;2023-04-15T14:42:37;13.46;55.24
75372;HTU21D;63956;52.006;5.878;2023-04-15T14:45:10;13.41;55.40
75372;HTU21D;63956;52.006;5.878;2023-04-15T14:47:39;13.37;55.41
75372;HTU21D;63956;52.006;5.878;2023-04-15T14:50:09;13.33;55.54
75372;HTU21D;63956;52.006;5.878;2023-04-15T14:52:38;13.25;55.67
75372;HTU21D;63956;52.006;5.878;2023-04-15T14:55:09;13.22;55.78
75372;HTU21D;63956;52.006;5.878;2023-04-15T14:57:39;13.19;55.84
75372;HTU21D;63956;52.006;5.878;2023-04-15T15:00:12;13.16;55.87
75372;HTU21D;63956;52.006;5.878;2023-04-15T15:02:44;13.07;56.07
75372;HTU21D;63956;52.006;5.878;2023-04-15T15:05:13;13.06;56.19
75372;HTU21D;63956;52.006;5.878;2023-04-15T15:07:42;13.05;56.07
75372;HTU21D;63956;52.006;5.878;2023-04-15T15:10:12;12.99;56.26
75372;HTU21D;63956;52.006;5.878;2023-04-15T15:12:41;12.96;56.31
75372;HTU21D;63956;52.006;5.878;2023-04-15T15:15:12;12.95;56.35
75372;HTU21D;63956;52.006;5.878;2023-04-15T15:17:41;12.95;56.45
75372;HTU21D;63956;52.006;5.878;2023-04-15T15:20:11;12.95;56.55
75372;HTU21D;63956;52.006;5.878;2023-04-15T15:22:41;12.96;56.57
75372;HTU21D;63956;52.006;5.878;2023-04-15T15:25:10;12.95;56.64
75372;HTU21D;63956;52.006;5.878;2023-04-15T15:27:40;12.94;56.68
75372;HTU21D;63956;52.006;5.878;2023-04-15T15:30:12;12.90;56.77
75372;HTU21D;63956;52.006;5.878;2023-04-15T15:32:42;12.89;56.87
75372;HTU21D;63956;52.006;5.878;2023-04-15T15:35:11;12.84;57.03
75372;HTU21D;63956;52.006;5.878;2023-04-15T15:37:41;12.80;57.16
75372;HTU21D;63956;52.006;5.878;2023-04-15T15:40:11;12.75;57.35
75372;HTU21D;63956;52.006;5.878;2023-04-15T15:42:40;12.69;57.52
75372;HTU21D;63956;52.006;5.878;2023-04-15T15:45:13;12.67;57.69